sensor_id;sensor_type;location;lat;lon;timestamp;temperature;humidity
18412;DHT22;27097;51.738;19.472;2023-02-01T00:02:16;20.00;63.90
18412;DHT22;27097;51.738;19.472;2023-02-01T00:04:43;20.00;64.00
18412;DHT22;27097;51.738;19.472;2023-02-01T00:07:09;20.00;64.00
18412;DHT22;27097;51.738;19.472;2023-02-01T00:09:38;20.00;63.90
18412;DHT22;27097;51.738;19.472;2023-02-01T00:12:05;20.00;63.80
18412;DHT22;27097;51.738;19.472;2023-02-01T00:14:31;20.00;64.50
18412;DHT22;27097;51.738;19.472;2023-02-01T00:17:04;20.00;63.50
18412;DHT22;27097;51.738;19.472;2023-02-01T00:19:30;20.00;63.60
18412;DHT22;27097;51.738;19.472;2023-02-01T00:21:57;20.00;63.50
18412;DHT22;27097;51.738;19.472;2023-02-01T00:24:24;20.00;63.00
18412;DHT22;27097;51.738;19.472;2023-02-01T00:26:52;20.00;63.50
18412;DHT22;27097;51.738;19.472;2023-02-01T00:29:20;20.00;62.90
18412;DHT22;27097;51.738;19.472;2023-02-01T00:31:49;20.00;62.90
18412;DHT22;27097;51.738;19.472;2023-02-01T00:34:16;20.00;62.50
18412;DHT22;27097;51.738;19.472;2023-02-01T00:36:44;20.00;61.60
18412;DHT22;27097;51.738;19.472;2023-02-01T00:39:12;19.90;61.10
18412;DHT22;27097;51.738;19.472;2023-02-01T00:41:39;19.90;60.50
18412;DHT22;27097;51.738;19.472;2023-02-01T00:44:07;19.90;60.50
18412;DHT22;27097;51.738;19.472;2023-02-01T00:46:34;19.90;63.00
18412;DHT22;27097;51.738;19.472;2023-02-01T00:49:01;19.80;64.10
18412;DHT22;27097;51.738;19.472;2023-02-01T00:51:29;19.90;62.60
18412;DHT22;27097;51.738;19.472;2023-02-01T00:53:56;19.90;63.00
18412;DHT22;27097;51.738;19.472;2023-02-01T00:56:23;19.80;61.70
18412;DHT22;27097;51.738;19.472;2023-02-01T00:58:50;19.80;61.70
18412;DHT22;27097;51.738;19.472;2023-02-01T01:01:19;19.80;61.40
18412;DHT22;27097;51.738;19.472;2023-02-01T01:03:48;19.70;61.60
18412;DHT22;27097;51.738;19.472;2023-02-01T01:06:18;19.70;61.20
18412;DHT22;27097;51.738;19.472;2023-02-01T01:08:46;19.70;61.20
18412;DHT22;27097;51.738;19.472;2023-02-01T01:11:15;19.70;60.30
18412;DHT22;27097;51.738;19.472;2023-02-01T01:13:43;19.70;59.80
18412;DHT22;27097;51.738;19.472;2023-02-01T01:16:10;19.70;60.50
18412;DHT22;27097;51.738;19.472;2023-02-01T01:18:39;19.70;62.50
18412;DHT22;27097;51.738;19.472;2023-02-01T01:21:07;19.70;66.20
18412;DHT22;27097;51.738;19.472;2023-02-01T01:23:34;19.70;65.30
18412;DHT22;27097;51.738;19.472;2023-02-01T01:26:05;19.70;65.80
18412;DHT22;27097;51.738;19.472;2023-02-01T01:28:32;19.70;66.60
18412;DHT22;27097;51.738;19.472;2023-02-01T01:30:58;19.60;66.30
18412;DHT22;27097;51.738;19.472;2023-02-01T01:33:25;19.70;67.80
18412;DHT22;27097;51.738;19.472;2023-02-01T01:35:53;19.70;69.70
18412;DHT22;27097;51.738;19.472;2023-02-01T01:38:20;19.70;70.90
18412;DHT22;27097;51.738;19.472;2023-02-01T01:40:48;19.70;72.30
18412;DHT22;27097;51.738;19.472;2023-02-01T01:43:17;19.70;72.20
18412;DHT22;27097;51.738;19.472;2023-02-01T01:45:45;19.70;72.70
18412;DHT22;27097;51.738;19.472;2023-02-01T01:48:16;19.80;73.60
18412;DHT22;27097;51.738;19.472;2023-02-01T01:50:47;19.80;73.60
18412;DHT22;27097;51.738;19.472;2023-02-01T01:53:18;19.80;74.20
18412;DHT22;27097;51.738;19.472;2023-02-01T01:55:47;19.80;74.20
18412;DHT22;27097;51.738;19.472;2023-02-01T01:58:18;19.80;74.40
18412;DHT22;27097;51.738;19.472;2023-02-01T02:00:46;19.80;74.70
18412;DHT22;27097;51.738;19.472;2023-02-01T02:03:19;19.90;75.20
18412;DHT22;27097;51.738;19.472;2023-02-01T02:05:48;19.90;75.10
18412;DHT22;27097;51.738;19.472;2023-02-01T02:08:18;19.90;74.30
18412;DHT22;27097;51.738;19.472;2023-02-01T02:10:46;19.90;76.00
18412;DHT22;27097;51.738;19.472;2023-02-01T02:13:31;19.90;76.50
18412;DHT22;27097;51.738;19.472;2023-02-01T02:16:07;19.90;76.50
18412;DHT22;27097;51.738;19.472;2023-02-01T02:18:43;19.90;77.40
18412;DHT22;27097;51.738;19.472;2023-02-01T02:21:18;19.90;77.80
18412;DHT22;27097;51.738;19.472;2023-02-01T02:27:18;19.90;78.30
18412;DHT22;27097;51.738;19.472;2023-02-01T02:30:22;19.90;78.20
18412;DHT22;27097;51.738;19.472;2023-02-01T02:33:20;19.90;79.00
18412;DHT22;27097;51.738;19.472;2023-02-01T02:35:56;19.90;78.90
18412;DHT22;27097;51.738;19.472;2023-02-01T02:38:31;19.90;79.40
18412;DHT22;27097;51.738;19.472;2023-02-01T02:41:07;19.90;79.70
18412;DHT22;27097;51.738;19.472;2023-02-01T02:43:41;19.90;79.90
18412;DHT22;27097;51.738;19.472;2023-02-01T02:46:35;19.90;80.00
18412;DHT22;27097;51.738;19.472;2023-02-01T02:49:25;19.90;80.10
18412;DHT22;27097;51.738;19.472;2023-02-01T02:51:58;19.90;80.10
18412;DHT22;27097;51.738;19.472;2023-02-01T02:54:47;19.90;80.50
18412;DHT22;27097;51.738;19.472;2023-02-01T02:57:20;19.90;80.50
18412;DHT22;27097;51.738;19.472;2023-02-01T03:00:10;19.90;81.00
18412;DHT22;27097;51.738;19.472;2023-02-01T03:02:56;19.90;81.30
18412;DHT22;27097;51.738;19.472;2023-02-01T03:05:44;19.90;81.30
18412;DHT22;27097;51.738;19.472;2023-02-01T03:08:12;19.90;81.40
18412;DHT22;27097;51.738;19.472;2023-02-01T03:10:48;20.00;81.70
18412;DHT22;27097;51.738;19.472;2023-02-01T03:13:20;20.00;81.40
18412;DHT22;27097;51.738;19.472;2023-02-01T03:15:53;20.00;81.80
18412;DHT22;27097;51.738;19.472;2023-02-01T03:18:26;19.90;81.70
18412;DHT22;27097;51.738;19.472;2023-02-01T03:20:59;19.90;82.10
18412;DHT22;27097;51.738;19.472;2023-02-01T03:23:31;20.00;82.00
18412;DHT22;27097;51.738;19.472;2023-02-01T03:26:00;20.00;81.60
18412;DHT22;27097;51.738;19.472;2023-02-01T03:28:29;20.00;81.30
18412;DHT22;27097;51.738;19.472;2023-02-01T03:30:57;20.00;81.90
18412;DHT22;27097;51.738;19.472;2023-02-01T03:33:26;20.00;82.00
18412;DHT22;27097;51.738;19.472;2023-02-01T03:36:05;20.00;81.90
18412;DHT22;27097;51.738;19.472;2023-02-01T03:38:39;20.00;81.60
18412;DHT22;27097;51.738;19.472;2023-02-01T03:41:12;20.00;81.80
18412;DHT22;27097;51.738;19.472;2023-02-01T03:43:48;20.00;82.00
18412;DHT22;27097;51.738;19.472;2023-02-01T03:46:20;20.00;82.20
18412;DHT22;27097;51.738;19.472;2023-02-01T03:48:50;20.00;82.20
18412;DHT22;27097;51.738;19.472;2023-02-01T03:51:19;20.00;82.10
18412;DHT22;27097;51.738;19.472;2023-02-01T03:53:48;20.00;82.20
18412;DHT22;27097;51.738;19.472;2023-02-01T03:56:17;20.00;82.40
18412;DHT22;27097;51.738;19.472;2023-02-01T03:58:45;20.00;82.70
18412;DHT22;27097;51.738;19.472;2023-02-01T04:01:25;20.00;82.60
18412;DHT22;27097;51.738;19.472;2023-02-01T04:03:52;20.00;83.10
18412;DHT22;27097;51.738;19.472;2023-02-01T04:06:20;20.00;82.60
18412;DHT22;27097;51.738;19.472;2023-02-01T04:08:47;20.00;82.90
18412;DHT22;27097;51.738;19.472;2023-02-01T04:11:14;20.00;82.90
18412;DHT22;27097;51.738;19.472;2023-02-01T04:13:40;20.00;83.00
18412;DHT22;27097;51.738;19.472;2023-02-01T04:16:07;20.00;82.70
18412;DHT22;27097;51.738;19.472;2023-02-01T04:18:34;20.00;83.00
18412;DHT22;27097;51.738;19.472;2023-02-01T04:21:01;20.00;83.40
18412;DHT22;27097;51.738;19.472;2023-02-01T04:23:29;20.00;82.80
18412;DHT22;27097;51.738;19.472;2023-02-01T04:25:59;20.00;83.00
18412;DHT22;27097;51.738;19.472;2023-02-01T04:28:26;20.00;82.50
18412;DHT22;27097;51.738;19.472;2023-02-01T04:30:53;20.00;82.60
18412;DHT22;27097;51.738;19.472;2023-02-01T04:33:20;20.00;83.40
18412;DHT22;27097;51.738;19.472;2023-02-01T04:35:47;20.00;83.00
18412;DHT22;27097;51.738;19.472;2023-02-01T04:38:14;20.00;83.40
18412;DHT22;27097;51.738;19.472;2023-02-01T04:40:42;20.00;83.00
18412;DHT22;27097;51.738;19.472;2023-02-01T04:43:09;20.00;83.00
18412;DHT22;27097;51.738;19.472;2023-02-01T04:45:35;20.00;83.00
18412;DHT22;27097;51.738;19.472;2023-02-01T04:48:03;20.00;83.40
18412;DHT22;27097;51.738;19.472;2023-02-01T04:50:29;20.00;82.70
18412;DHT22;27097;51.738;19.472;2023-02-01T04:52:56;20.00;82.90
18412;DHT22;27097;51.738;19.472;2023-02-01T04:55:23;20.00;83.60
18412;DHT22;27097;51.738;19.472;2023-02-01T04:57:51;20.00;83.20
18412;DHT22;27097;51.738;19.472;2023-02-01T05:00:18;20.00;83.10
18412;DHT22;27097;51.738;19.472;2023-02-01T05:02:45;20.00;83.50
18412;DHT22;27097;51.738;19.472;2023-02-01T05:05:12;20.00;82.90
18412;DHT22;27097;51.738;19.472;2023-02-01T05:07:39;20.00;83.00
18412;DHT22;27097;51.738;19.472;2023-02-01T05:10:06;20.00;82.40
18412;DHT22;27097;51.738;19.472;2023-02-01T05:12:33;20.00;82.90
18412;DHT22;27097;51.738;19.472;2023-02-01T05:15:19;20.00;83.20
18412;DHT22;27097;51.738;19.472;2023-02-01T05:17:46;20.00;83.10
18412;DHT22;27097;51.738;19.472;2023-02-01T05:20:13;20.00;83.00
18412;DHT22;27097;51.738;19.472;2023-02-01T05:22:41;20.00;83.10
18412;DHT22;27097;51.738;19.472;2023-02-01T05:25:08;20.00;82.60
18412;DHT22;27097;51.738;19.472;2023-02-01T05:27:34;20.00;83.20
18412;DHT22;27097;51.738;19.472;2023-02-01T05:30:02;20.00;83.30
18412;DHT22;27097;51.738;19.472;2023-02-01T05:32:30;20.00;83.90
18412;DHT22;27097;51.738;19.472;2023-02-01T05:34:56;20.00;83.80
18412;DHT22;27097;51.738;19.472;2023-02-01T05:37:23;20.00;83.80
18412;DHT22;27097;51.738;19.472;2023-02-01T05:39:50;20.00;83.80
18412;DHT22;27097;51.738;19.472;2023-02-01T05:42:17;20.00;83.90
18412;DHT22;27097;51.738;19.472;2023-02-01T05:44:44;20.00;83.60
18412;DHT22;27097;51.738;19.472;2023-02-01T05:47:11;20.00;83.10
18412;DHT22;27097;51.738;19.472;2023-02-01T05:49:39;20.00;83.80
18412;DHT22;27097;51.738;19.472;2023-02-01T05:52:06;20.00;84.00
18412;DHT22;27097;51.738;19.472;2023-02-01T05:54:33;20.00;84.00
18412;DHT22;27097;51.738;19.472;2023-02-01T05:57:00;20.00;83.60
18412;DHT22;27097;51.738;19.472;2023-02-01T05:59:27;20.00;83.50
18412;DHT22;27097;51.738;19.472;2023-02-01T06:01:55;20.00;84.20
18412;DHT22;27097;51.738;19.472;2023-02-01T06:04:21;20.00;83.80
18412;DHT22;27097;51.738;19.472;2023-02-01T06:06:50;20.00;83.50
18412;DHT22;27097;51.738;19.472;2023-02-01T06:09:17;20.00;84.20
18412;DHT22;27097;51.738;19.472;2023-02-01T06:11:43;20.10;83.80
18412;DHT22;27097;51.738;19.472;2023-02-01T06:14:10;20.00;84.40
18412;DHT22;27097;51.738;19.472;2023-02-01T06:16:37;20.00;84.10
18412;DHT22;27097;51.738;19.472;2023-02-01T06:19:04;20.00;84.00
18412;DHT22;27097;51.738;19.472;2023-02-01T06:21:31;20.00;84.10
18412;DHT22;27097;51.738;19.472;2023-02-01T06:24:00;20.10;84.50
18412;DHT22;27097;51.738;19.472;2023-02-01T06:26:27;20.00;84.40
18412;DHT22;27097;51.738;19.472;2023-02-01T06:28:54;20.10;84.60
18412;DHT22;27097;51.738;19.472;2023-02-01T06:31:22;20.00;83.80
18412;DHT22;27097;51.738;19.472;2023-02-01T06:33:51;20.00;84.00
18412;DHT22;27097;51.738;19.472;2023-02-01T06:36:19;20.10;84.60
18412;DHT22;27097;51.738;19.472;2023-02-01T06:38:49;20.10;83.40
18412;DHT22;27097;51.738;19.472;2023-02-01T06:41:17;20.00;83.80
18412;DHT22;27097;51.738;19.472;2023-02-01T06:43:46;20.10;84.10
18412;DHT22;27097;51.738;19.472;2023-02-01T06:46:13;20.10;83.80
18412;DHT22;27097;51.738;19.472;2023-02-01T06:48:40;20.10;81.80
18412;DHT22;27097;51.738;19.472;2023-02-01T06:51:19;20.10;81.50
18412;DHT22;27097;51.738;19.472;2023-02-01T06:53:46;20.10;80.00
18412;DHT22;27097;51.738;19.472;2023-02-01T06:56:13;20.10;81.00
18412;DHT22;27097;51.738;19.472;2023-02-01T06:58:41;20.10;81.00
18412;DHT22;27097;51.738;19.472;2023-02-01T07:01:09;20.10;80.90
18412;DHT22;27097;51.738;19.472;2023-02-01T07:03:36;20.10;76.50
18412;DHT22;27097;51.738;19.472;2023-02-01T07:06:04;20.10;74.80
18412;DHT22;27097;51.738;19.472;2023-02-01T07:08:34;20.10;76.50
18412;DHT22;27097;51.738;19.472;2023-02-01T07:11:05;20.10;78.80
18412;DHT22;27097;51.738;19.472;2023-02-01T07:13:32;20.10;77.00
18412;DHT22;27097;51.738;19.472;2023-02-01T07:16:01;20.10;76.60
18412;DHT22;27097;51.738;19.472;2023-02-01T07:18:28;20.10;76.10
18412;DHT22;27097;51.738;19.472;2023-02-01T07:20:55;20.10;77.90
18412;DHT22;27097;51.738;19.472;2023-02-01T07:23:23;20.10;77.10
18412;DHT22;27097;51.738;19.472;2023-02-01T07:25:53;20.10;77.10
18412;DHT22;27097;51.738;19.472;2023-02-01T07:28:20;20.10;76.50
18412;DHT22;27097;51.738;19.472;2023-02-01T07:30:52;20.10;76.50
18412;DHT22;27097;51.738;19.472;2023-02-01T07:33:38;20.10;75.90
18412;DHT22;27097;51.738;19.472;2023-02-01T07:36:08;20.10;76.10
18412;DHT22;27097;51.738;19.472;2023-02-01T07:38:37;20.10;76.20
18412;DHT22;27097;51.738;19.472;2023-02-01T07:41:06;20.10;75.80
18412;DHT22;27097;51.738;19.472;2023-02-01T07:43:34;20.10;75.80
18412;DHT22;27097;51.738;19.472;2023-02-01T07:46:01;20.10;74.40
18412;DHT22;27097;51.738;19.472;2023-02-01T07:48:30;20.10;75.00
18412;DHT22;27097;51.738;19.472;2023-02-01T07:50:59;20.10;75.50
18412;DHT22;27097;51.738;19.472;2023-02-01T07:53:26;20.10;75.60
18412;DHT22;27097;51.738;19.472;2023-02-01T07:55:53;20.10;76.30
18412;DHT22;27097;51.738;19.472;2023-02-01T07:58:21;20.10;75.20
18412;DHT22;27097;51.738;19.472;2023-02-01T08:00:48;20.20;75.40
18412;DHT22;27097;51.738;19.472;2023-02-01T08:03:32;20.20;76.00
18412;DHT22;27097;51.738;19.472;2023-02-01T08:06:00;20.20;75.50
18412;DHT22;27097;51.738;19.472;2023-02-01T08:08:27;20.20;75.00
18412;DHT22;27097;51.738;19.472;2023-02-01T08:10:57;20.20;74.80
18412;DHT22;27097;51.738;19.472;2023-02-01T08:13:24;20.20;74.80
18412;DHT22;27097;51.738;19.472;2023-02-01T08:15:51;20.20;75.70
18412;DHT22;27097;51.738;19.472;2023-02-01T08:18:18;20.20;75.20
18412;DHT22;27097;51.738;19.472;2023-02-01T08:20:46;20.20;72.70
18412;DHT22;27097;51.738;19.472;2023-02-01T08:23:14;20.20;72.10
18412;DHT22;27097;51.738;19.472;2023-02-01T08:25:41;20.20;73.90
18412;DHT22;27097;51.738;19.472;2023-02-01T08:28:08;20.10;74.40
18412;DHT22;27097;51.738;19.472;2023-02-01T08:30:36;20.20;75.10
18412;DHT22;27097;51.738;19.472;2023-02-01T08:33:03;20.20;72.30
18412;DHT22;27097;51.738;19.472;2023-02-01T08:35:31;20.20;73.80
18412;DHT22;27097;51.738;19.472;2023-02-01T08:38:01;20.20;73.90
18412;DHT22;27097;51.738;19.472;2023-02-01T08:40:29;20.20;73.50
18412;DHT22;27097;51.738;19.472;2023-02-01T08:42:57;20.20;75.00
18412;DHT22;27097;51.738;19.472;2023-02-01T08:45:27;20.20;74.80
18412;DHT22;27097;51.738;19.472;2023-02-01T08:47:55;20.20;76.30
18412;DHT22;27097;51.738;19.472;2023-02-01T08:50:23;20.20;73.60
18412;DHT22;27097;51.738;19.472;2023-02-01T08:52:50;20.20;72.50
18412;DHT22;27097;51.738;19.472;2023-02-01T08:55:17;20.20;73.10
18412;DHT22;27097;51.738;19.472;2023-02-01T08:57:46;20.20;74.10
18412;DHT22;27097;51.738;19.472;2023-02-01T09:00:15;20.20;74.80
18412;DHT22;27097;51.738;19.472;2023-02-01T09:02:42;20.20;74.80
18412;DHT22;27097;51.738;19.472;2023-02-01T09:05:09;20.20;75.30
18412;DHT22;27097;51.738;19.472;2023-02-01T09:07:37;20.20;75.60
18412;DHT22;27097;51.738;19.472;2023-02-01T09:10:04;20.20;75.40
18412;DHT22;27097;51.738;19.472;2023-02-01T09:12:33;20.20;72.50
18412;DHT22;27097;51.738;19.472;2023-02-01T09:15:03;20.20;74.40
18412;DHT22;27097;51.738;19.472;2023-02-01T09:17:32;20.20;76.20
18412;DHT22;27097;51.738;19.472;2023-02-01T09:19:59;20.20;75.10
18412;DHT22;27097;51.738;19.472;2023-02-01T09:22:26;20.20;76.80
18412;DHT22;27097;51.738;19.472;2023-02-01T09:24:53;20.30;77.00
18412;DHT22;27097;51.738;19.472;2023-02-01T09:27:20;20.20;76.90
18412;DHT22;27097;51.738;19.472;2023-02-01T09:29:47;20.30;76.60
18412;DHT22;27097;51.738;19.472;2023-02-01T09:32:19;20.30;76.20
18412;DHT22;27097;51.738;19.472;2023-02-01T09:34:46;20.20;72.50
18412;DHT22;27097;51.738;19.472;2023-02-01T09:37:12;20.20;73.10
18412;DHT22;27097;51.738;19.472;2023-02-01T09:39:40;20.20;73.20
18412;DHT22;27097;51.738;19.472;2023-02-01T09:42:16;20.20;73.20
18412;DHT22;27097;51.738;19.472;2023-02-01T09:47:35;20.20;76.50
18412;DHT22;27097;51.738;19.472;2023-02-01T09:50:08;20.20;73.60
18412;DHT22;27097;51.738;19.472;2023-02-01T09:52:44;20.20;73.50
18412;DHT22;27097;51.738;19.472;2023-02-01T09:55:16;20.20;73.20
18412;DHT22;27097;51.738;19.472;2023-02-01T09:57:50;20.20;75.90
18412;DHT22;27097;51.738;19.472;2023-02-01T10:00:23;20.20;76.40
18412;DHT22;27097;51.738;19.472;2023-02-01T10:02:54;20.20;74.70
18412;DHT22;27097;51.738;19.472;2023-02-01T10:08:26;20.20;74.70
18412;DHT22;27097;51.738;19.472;2023-02-01T10:11:05;20.20;75.10
18412;DHT22;27097;51.738;19.472;2023-02-01T10:13:48;20.20;75.00
18412;DHT22;27097;51.738;19.472;2023-02-01T10:16:22;20.20;75.60
18412;DHT22;27097;51.738;19.472;2023-02-01T10:19:00;20.20;75.70
18412;DHT22;27097;51.738;19.472;2023-02-01T10:21:42;20.20;74.30
18412;DHT22;27097;51.738;19.472;2023-02-01T10:24:24;20.20;73.80
18412;DHT22;27097;51.738;19.472;2023-02-01T10:26:56;20.20;74.10
18412;DHT22;27097;51.738;19.472;2023-02-01T10:29:29;20.20;73.80
18412;DHT22;27097;51.738;19.472;2023-02-01T10:31:57;20.10;74.10
18412;DHT22;27097;51.738;19.472;2023-02-01T10:34:27;20.10;73.90
18412;DHT22;27097;51.738;19.472;2023-02-01T10:36:59;20.10;73.50
18412;DHT22;27097;51.738;19.472;2023-02-01T10:39:27;20.10;74.40
18412;DHT22;27097;51.738;19.472;2023-02-01T10:41:55;20.10;73.60
18412;DHT22;27097;51.738;19.472;2023-02-01T10:44:26;20.10;74.00
18412;DHT22;27097;51.738;19.472;2023-02-01T10:46:53;20.10;74.90
18412;DHT22;27097;51.738;19.472;2023-02-01T10:49:24;20.10;73.40
18412;DHT22;27097;51.738;19.472;2023-02-01T10:51:58;20.10;72.70
18412;DHT22;27097;51.738;19.472;2023-02-01T10:54:34;20.10;72.90
18412;DHT22;27097;51.738;19.472;2023-02-01T10:57:01;20.10;72.10
18412;DHT22;27097;51.738;19.472;2023-02-01T10:59:29;20.10;72.10
18412;DHT22;27097;51.738;19.472;2023-02-01T11:01:59;20.10;72.50
18412;DHT22;27097;51.738;19.472;2023-02-01T11:04:30;20.10;70.70
18412;DHT22;27097;51.738;19.472;2023-02-01T11:07:07;20.00;68.90
18412;DHT22;27097;51.738;19.472;2023-02-01T11:09:38;20.00;70.10
18412;DHT22;27097;51.738;19.472;2023-02-01T11:12:22;20.00;69.40
18412;DHT22;27097;51.738;19.472;2023-02-01T11:14:50;20.00;70.50
18412;DHT22;27097;51.738;19.472;2023-02-01T11:17:24;20.00;69.40
18412;DHT22;27097;51.738;19.472;2023-02-01T11:19:58;20.00;70.90
18412;DHT22;27097;51.738;19.472;2023-02-01T11:22:27;20.00;71.50
18412;DHT22;27097;51.738;19.472;2023-02-01T11:24:56;20.00;70.10
18412;DHT22;27097;51.738;19.472;2023-02-01T11:27:24;20.00;71.00
18412;DHT22;27097;51.738;19.472;2023-02-01T11:29:57;20.00;71.20
18412;DHT22;27097;51.738;19.472;2023-02-01T11:32:27;20.00;71.10
18412;DHT22;27097;51.738;19.472;2023-02-01T11:34:57;20.00;71.40
18412;DHT22;27097;51.738;19.472;2023-02-01T11:37:30;20.00;72.00
18412;DHT22;27097;51.738;19.472;2023-02-01T11:39:59;20.00;71.50
18412;DHT22;27097;51.738;19.472;2023-02-01T11:42:27;20.00;71.20
18412;DHT22;27097;51.738;19.472;2023-02-01T11:45:16;20.00;71.10
18412;DHT22;27097;51.738;19.472;2023-02-01T11:47:43;20.00;70.70
18412;DHT22;27097;51.738;19.472;2023-02-01T11:50:16;20.00;70.60
18412;DHT22;27097;51.738;19.472;2023-02-01T11:53:06;20.00;71.40
18412;DHT22;27097;51.738;19.472;2023-02-01T11:55:49;20.00;70.60
18412;DHT22;27097;51.738;19.472;2023-02-01T11:58:28;20.00;70.20
18412;DHT22;27097;51.738;19.472;2023-02-01T12:01:07;20.00;69.80
18412;DHT22;27097;51.738;19.472;2023-02-01T12:04:01;20.00;70.30
18412;DHT22;27097;51.738;19.472;2023-02-01T12:06:38;20.00;70.20
18412;DHT22;27097;51.738;19.472;2023-02-01T12:09:38;20.00;69.90
18412;DHT22;27097;51.738;19.472;2023-02-01T12:12:14;20.00;69.50
18412;DHT22;27097;51.738;19.472;2023-02-01T12:15:08;20.00;69.50
18412;DHT22;27097;51.738;19.472;2023-02-01T12:17:46;20.00;70.40
18412;DHT22;27097;51.738;19.472;2023-02-01T12:20:40;20.00;71.70
18412;DHT22;27097;51.738;19.472;2023-02-01T12:23:24;20.00;71.20
18412;DHT22;27097;51.738;19.472;2023-02-01T12:26:06;19.90;70.20
18412;DHT22;27097;51.738;19.472;2023-02-01T12:29:02;20.00;69.40
18412;DHT22;27097;51.738;19.472;2023-02-01T12:31:49;20.00;69.70
18412;DHT22;27097;51.738;19.472;2023-02-01T12:34:56;20.00;69.90
18412;DHT22;27097;51.738;19.472;2023-02-01T12:37:47;20.00;70.70
18412;DHT22;27097;51.738;19.472;2023-02-01T12:40:29;20.00;70.20
18412;DHT22;27097;51.738;19.472;2023-02-01T12:43:02;20.00;69.00
18412;DHT22;27097;51.738;19.472;2023-02-01T12:45:33;20.00;70.20
18412;DHT22;27097;51.738;19.472;2023-02-01T12:48:16;20.00;69.20
18412;DHT22;27097;51.738;19.472;2023-02-01T12:50:50;20.00;69.20
18412;DHT22;27097;51.738;19.472;2023-02-01T12:53:23;20.00;70.00
18412;DHT22;27097;51.738;19.472;2023-02-01T12:55:54;20.00;71.20
18412;DHT22;27097;51.738;19.472;2023-02-01T12:58:25;20.00;71.30
18412;DHT22;27097;51.738;19.472;2023-02-01T13:00:57;20.00;70.10
18412;DHT22;27097;51.738;19.472;2023-02-01T13:03:32;20.00;71.00
18412;DHT22;27097;51.738;19.472;2023-02-01T13:06:05;20.00;69.70
18412;DHT22;27097;51.738;19.472;2023-02-01T13:08:39;20.00;70.60
18412;DHT22;27097;51.738;19.472;2023-02-01T13:11:11;20.00;70.60
18412;DHT22;27097;51.738;19.472;2023-02-01T13:13:48;20.00;70.50
18412;DHT22;27097;51.738;19.472;2023-02-01T13:16:21;20.00;70.50
18412;DHT22;27097;51.738;19.472;2023-02-01T13:18:59;20.00;70.50
18412;DHT22;27097;51.738;19.472;2023-02-01T13:21:31;20.00;70.50
18412;DHT22;27097;51.738;19.472;2023-02-01T13:23:58;20.10;69.60
18412;DHT22;27097;51.738;19.472;2023-02-01T13:26:25;20.00;70.40
18412;DHT22;27097;51.738;19.472;2023-02-01T13:28:57;20.00;70.00
18412;DHT22;27097;51.738;19.472;2023-02-01T13:34:42;20.00;70.80
18412;DHT22;27097;51.738;19.472;2023-02-01T13:40:23;20.00;69.00
18412;DHT22;27097;51.738;19.472;2023-02-01T13:42:55;20.00;70.70
18412;DHT22;27097;51.738;19.472;2023-02-01T13:45:27;20.00;70.10
18412;DHT22;27097;51.738;19.472;2023-02-01T13:47:58;20.00;70.20
18412;DHT22;27097;51.738;19.472;2023-02-01T13:50:28;20.00;70.00
18412;DHT22;27097;51.738;19.472;2023-02-01T13:52:57;20.00;69.70
18412;DHT22;27097;51.738;19.472;2023-02-01T13:55:31;20.00;70.20
18412;DHT22;27097;51.738;19.472;2023-02-01T13:58:06;20.00;69.20
18412;DHT22;27097;51.738;19.472;2023-02-01T14:00:39;20.00;69.80
18412;DHT22;27097;51.738;19.472;2023-02-01T14:03:15;20.00;68.50
18412;DHT22;27097;51.738;19.472;2023-02-01T14:08:43;20.00;66.70
18412;DHT22;27097;51.738;19.472;2023-02-01T14:11:33;20.00;67.60
18412;DHT22;27097;51.738;19.472;2023-02-01T14:23:20;20.00;68.40
18412;DHT22;27097;51.738;19.472;2023-02-01T14:26:04;20.00;69.20
18412;DHT22;27097;51.738;19.472;2023-02-01T14:28:35;20.00;69.20
18412;DHT22;27097;51.738;19.472;2023-02-01T14:31:17;20.00;69.40
18412;DHT22;27097;51.738;19.472;2023-02-01T14:33:49;20.00;68.60
18412;DHT22;27097;51.738;19.472;2023-02-01T14:36:16;20.00;69.40
18412;DHT22;27097;51.738;19.472;2023-02-01T14:38:49;20.00;68.90
18412;DHT22;27097;51.738;19.472;2023-02-01T14:41:38;20.00;69.20
18412;DHT22;27097;51.738;19.472;2023-02-01T14:44:22;20.00;68.80
18412;DHT22;27097;51.738;19.472;2023-02-01T14:47:25;20.00;66.60
18412;DHT22;27097;51.738;19.472;2023-02-01T14:49:56;20.00;68.50
18412;DHT22;27097;51.738;19.472;2023-02-01T14:52:30;20.00;68.40
18412;DHT22;27097;51.738;19.472;2023-02-01T14:55:04;20.00;68.50
18412;DHT22;27097;51.738;19.472;2023-02-01T14:57:34;20.00;68.30
18412;DHT22;27097;51.738;19.472;2023-02-01T15:00:11;20.00;66.20
18412;DHT22;27097;51.738;19.472;2023-02-01T15:02:41;19.90;66.40
18412;DHT22;27097;51.738;19.472;2023-02-01T15:05:27;19.90;66.10
18412;DHT22;27097;51.738;19.472;2023-02-01T15:07:58;19.90;67.20
18412;DHT22;27097;51.738;19.472;2023-02-01T15:10:27;19.90;65.60
18412;DHT22;27097;51.738;19.472;2023-02-01T15:12:54;19.90;65.20
18412;DHT22;27097;51.738;19.472;2023-02-01T15:15:22;19.90;66.10
18412;DHT22;27097;51.738;19.472;2023-02-01T15:17:51;19.90;67.40
18412;DHT22;27097;51.738;19.472;2023-02-01T15:20:20;19.90;67.10
18412;DHT22;27097;51.738;19.472;2023-02-01T15:22:58;19.90;67.80
18412;DHT22;27097;51.738;19.472;2023-02-01T15:25:28;19.90;67.50
18412;DHT22;27097;51.738;19.472;2023-02-01T15:27:56;19.90;68.00
18412;DHT22;27097;51.738;19.472;2023-02-01T15:30:25;20.00;68.50
18412;DHT22;27097;51.738;19.472;2023-02-01T15:33:04;20.00;69.20
18412;DHT22;27097;51.738;19.472;2023-02-01T15:35:42;20.00;68.80
18412;DHT22;27097;51.738;19.472;2023-02-01T15:38:30;20.00;68.70
18412;DHT22;27097;51.738;19.472;2023-02-01T15:41:09;20.00;68.50
18412;DHT22;27097;51.738;19.472;2023-02-01T15:43:38;20.00;68.70
18412;DHT22;27097;51.738;19.472;2023-02-01T15:46:11;20.00;68.90
18412;DHT22;27097;51.738;19.472;2023-02-01T15:48:43;20.00;68.30
18412;DHT22;27097;51.738;19.472;2023-02-01T15:51:17;20.00;68.40
18412;DHT22;27097;51.738;19.472;2023-02-01T15:53:50;20.00;68.00
18412;DHT22;27097;51.738;19.472;2023-02-01T15:56:24;20.00;68.10
18412;DHT22;27097;51.738;19.472;2023-02-01T15:59:00;20.00;69.00
18412;DHT22;27097;51.738;19.472;2023-02-01T16:01:28;20.00;68.70
18412;DHT22;27097;51.738;19.472;2023-02-01T16:04:04;20.00;68.50
18412;DHT22;27097;51.738;19.472;2023-02-01T16:06:36;20.00;68.50
18412;DHT22;27097;51.738;19.472;2023-02-01T16:09:10;20.00;68.80
18412;DHT22;27097;51.738;19.472;2023-02-01T16:11:48;20.00;69.00